Time;durP1;ratioP1;P1;durP2;ratioP2;P2;SDS_P1;SDS_P2;PMS_P1;PMS_P2;Temp;Humidity;BMP_temperature;BMP_pressure;BME280_temperature;BME280_humidity;BME280_pressure;Samples;Min_cycle;Max_cycle;Signal;HPM_P1;HPM_P2
2022/11/15 00:01:33;;;;;;;;;;;;;;;;;;5033595;28;2089;-49
2022/11/15 00:04:18;;;;;;;;;;;;;;;;;;5033528;28;1947;-50
2022/11/15 00:07:04;;;;;;;;;;;;;;;;;;5033287;28;2013;-47
2022/11/15 00:09:50;;;;;;;;;;;;;;;;;;5033384;28;2123;-45
2022/11/15 00:12:36;;;;;;;;;;;;;;;;;;5033360;28;2114;-47
2022/11/15 00:15:23;;;;;;;;;;;;;;;;;;5033365;28;1966;-46
2022/11/15 00:18:13;;;;;;;;;;;;;;;;;;5033326;28;2231;-47
2022/11/15 00:21:06;;;;;;;;;;;;;;;;;;5033106;28;2100;-50
2022/11/15 00:23:52;;;;;;;;;;;;;;;;;;5050314;28;2082;-50
2022/11/15 00:26:38;;;;;;;;;;;;;;;;;;5052676;28;2025;-46
2022/11/15 00:29:24;;;;;;;;;;;;;;;;;;5052806;28;2111;-49
2022/11/15 00:32:10;;;;;;;;;;;;;;;;;;5053423;28;2017;-47
2022/11/15 00:34:56;;;;;;;;;;;;;;;;;;5052860;28;2015;-46
2022/11/15 00:37:42;;;;;;;;;;;;;;;;;;5052879;28;1975;-47
2022/11/15 00:40:28;;;;;;;;;;;;;;;;;;5052618;28;2122;-46
2022/11/15 00:43:14;;;;;;;;;;;;;;;;;;5052646;28;1916;-45
2022/11/15 00:46:02;;;;;;;;;;;;;;;;;;5052522;28;2050;-47
2022/11/15 00:48:47;;;;;;;;;;;;;;;;;;5052446;28;1954;-48
2022/11/15 00:51:33;;;;;;;;;;;;;;;;;;5052393;28;2166;-49
2022/11/15 00:54:19;;;;;;;;;;;;;;;;;;5052517;28;1829;-47
2022/11/15 00:57:05;;;;;;;;;;;;;;;;;;5052279;28;1885;-47
2022/11/15 00:59:51;;;;;;;;;;;;;;;;;;5052195;28;2023;-44
2022/11/15 01:02:39;;;;;;;;;;;;;;;;;;5052332;28;2001;-48
2022/11/15 01:05:25;;;;;;;;;;;;;;;;;;5052084;28;2148;-47
2022/11/15 01:08:15;;;;;;;;;;;;;;;;;;5052443;28;1952;-49
2022/11/15 01:11:02;;;;;;;;;;;;;;;;;;5052209;28;2276;-49
2022/11/15 01:13:48;;;;;;;;;;;;;;;;;;5050965;28;1882;-48
2022/11/15 01:16:33;;;;;;;;;;;;;;;;;;5051835;28;2110;-50
2022/11/15 01:19:19;;;;;;;;;;;;;;;;;;5052120;28;2122;-51
2022/11/15 01:22:05;;;;;;;;;;;;;;;;;;5051825;28;2000;-49
2022/11/15 01:24:51;;;;;;;;;;;;;;;;;;5051684;28;1825;-49
2022/11/15 01:27:36;;;;;;;;;;;;;;;;;;5052053;28;1906;-49
2022/11/15 01:30:22;;;;;;;;;;;;;;;;;;5051897;28;1834;-53
2022/11/15 01:33:07;;;;;;;;;;;;;;;;;;5052070;28;2027;-50
2022/11/15 01:35:53;;;;;;;;;;;;;;;;;;5050830;28;2191;-51
2022/11/15 01:38:40;;;;;;;;;;;;;;;;;;5051168;28;1916;-51
2022/11/15 01:41:27;;;;;;;;;;;;;;;;;;5051761;28;1908;-51
2022/11/15 01:44:32;;;;;;;;;;;;;;;;;;5050360;28;2003;-49
2022/11/15 01:47:17;;;;;;;;;;;;;;;;;;5050155;28;2071;-50
2022/11/15 01:50:05;;;;;;;;;;;;;;;;;;5051473;28;2000;-49
2022/11/15 01:52:50;;;;;;;;;;;;;;;;;;5051455;28;1971;-48
2022/11/15 01:55:36;;;;;;;;;;;;;;;;;;5051418;28;2011;-48
2022/11/15 01:58:21;;;;;;;;;;;;;;;;;;5051319;28;2088;-48
2022/11/15 02:01:07;;;;;;;;;;;;;;;;;;5051346;28;1936;-48
2022/11/15 02:03:59;;;;;;;;;;;;;;;;;;5051215;28;1984;-49
2022/11/15 02:06:46;;;;;;;;;;;;;;;;;;5051242;28;1973;-50
2022/11/15 02:09:32;;;;;;;;;;;;;;;;;;5051420;28;1916;-48
2022/11/15 02:12:21;;;;;;;;;;;;;;;;;;5036003;28;2002;-47
2022/11/15 02:15:07;;;;;;;;;;;;;;;;;;5051101;28;1944;-50
2022/11/15 02:18:01;;;;;;;;;;;;;;;;;;5051075;28;1936;-47
2022/11/15 02:21:03;;;;;;;;;;;;;;;;;;5051170;28;2185;-50
2022/11/15 02:24:07;;;;;;;;;;;;;;;;;;5050974;28;1885;-48
2022/11/15 02:27:08;;;;;;;;;;;;;;;;;;5050874;28;2056;-51
2022/11/15 02:30:13;;;;;;;;;;;;;;;;;;5050924;28;1925;-46
2022/11/15 02:33:00;;;;;;;;;;;;;;;;;;5050992;28;1902;-49
2022/11/15 02:35:57;;;;;;;;;;;;;;;;;;5050841;28;1978;-47
2022/11/15 02:38:51;;;;;;;;;;;;;;;;;;5050879;28;1991;-50
2022/11/15 02:41:46;;;;;;;;;;;;;;;;;;5050909;28;2101;-48
2022/11/15 02:44:36;;;;;;;;;;;;;;;;;;5050747;28;2013;-50
2022/11/15 02:47:23;;;;;;;;;;;;;;;;;;5050837;28;1960;-51
2022/11/15 02:50:11;;;;;;;;;;;;;;;;;;5053274;28;2006;-48
2022/11/15 02:52:56;;;;;;;;;;;;;;;;;;5054804;28;2001;-46
2022/11/15 02:55:50;;;;;;;;;;;;;;;;;;5054732;28;2024;-46
2022/11/15 02:58:54;;;;;;;;;;;;;;;;;;5054563;28;1985;-45
2022/11/15 03:01:39;;;;;;;;;;;;;;;;;;5053727;28;2106;-47
2022/11/15 03:04:25;;;;;;;;;;;;;;;;;;5054483;28;1934;-48
2022/11/15 03:07:14;;;;;;;;;;;;;;;;;;5054693;28;1979;-50
2022/11/15 03:10:05;;;;;;;;;;;;;;;;;;5054434;28;1763;-50
2022/11/15 03:12:51;;;;;;;;;;;;;;;;;;5054216;28;1939;-49
2022/11/15 03:15:40;;;;;;;;;;;;;;;;;;5054671;28;1935;-51
2022/11/15 03:18:37;;;;;;;;;;;;;;;;;;5054226;28;2173;-48
2022/11/15 03:21:24;;;;;;;;;;;;;;;;;;5054491;28;1940;-47
2022/11/15 03:24:11;;;;;;;;;;;;;;;;;;5054838;28;2075;-47
2022/11/15 03:26:59;;;;;;;;;;;;;;;;;;5052932;28;1978;-48
2022/11/15 03:29:47;;;;;;;;;;;;;;;;;;5054056;28;2027;-47
2022/11/15 03:32:45;;;;;;;;;;;;;;;;;;5052945;28;2052;-48
2022/11/15 03:35:35;;;;;;;;;;;;;;;;;;5053836;28;1950;-49
2022/11/15 03:38:25;;;;;;;;;;;;;;;;;;5054034;28;1835;-45
2022/11/15 03:41:17;;;;;;;;;;;;;;;;;;5054003;28;2097;-51
2022/11/15 03:44:15;;;;;;;;;;;;;;;;;;5053644;28;2151;-50
2022/11/15 03:47:23;;;;;;;;;;;;;;;;;;5053820;28;1917;-48
2022/11/15 03:50:15;;;;;;;;;;;;;;;;;;5053829;28;1922;-49
2022/11/15 03:53:01;;;;;;;;;;;;;;;;;;5053614;28;1920;-51
2022/11/15 03:55:47;;;;;;;;;;;;;;;;;;5053407;28;2031;-48
2022/11/15 03:58:33;;;;;;;;;;;;;;;;;;5053343;28;1904;-51
2022/11/15 04:01:19;;;;;;;;;;;;;;;;;;5052713;28;1908;-47
2022/11/15 04:04:05;;;;;;;;;;;;;;;;;;5053432;28;1927;-50
2022/11/15 04:06:51;;;;;;;;;;;;;;;;;;5053169;28;1985;-48
2022/11/15 04:12:43;;;;;;;;;;;;;;;;;;5053667;28;2092;-51
2022/11/15 04:15:29;;;;;;;;;;;;;;;;;;5053177;28;1964;-50
2022/11/15 04:18:16;;;;;;;;;;;;;;;;;;5053102;28;2132;-49
2022/11/15 04:26:53;;;;;;;;;;;;;;;;;;5052020;28;2051;-49
2022/11/15 04:29:39;;;;;;;;;;;;;;;;;;5053162;28;2002;-50
2022/11/15 04:32:25;;;;;;;;;;;;;;;;;;5052931;28;2255;-47
2022/11/15 04:35:10;;;;;;;;;;;;;;;;;;5053194;28;1968;-51
2022/11/15 04:37:57;;;;;;;;;;;;;;;;;;5052770;28;2039;-47
2022/11/15 04:40:43;;;;;;;;;;;;;;;;;;5052911;28;1991;-50
2022/11/15 04:43:29;;;;;;;;;;;;;;;;;;5052672;28;1957;-52
2022/11/15 04:46:15;;;;;;;;;;;;;;;;;;5052600;28;1783;-50
2022/11/15 04:49:01;;;;;;;;;;;;;;;;;;5052655;28;2106;-49
2022/11/15 04:51:47;;;;;;;;;;;;;;;;;;5052548;28;2100;-47
2022/11/15 04:54:33;;;;;;;;;;;;;;;;;;5052364;28;2067;-51
2022/11/15 04:57:19;;;;;;;;;;;;;;;;;;5052616;28;2029;-52
2022/11/15 05:00:06;;;;;;;;;;;;;;;;;;5052059;28;2006;-51
2022/11/15 05:05:57;;;;;;;;;;;;;;;;;;5052318;28;1938;-51
2022/11/15 05:08:43;;;;;;;;;;;;;;;;;;5052256;28;1962;-50
2022/11/15 05:11:29;;;;;;;;;;;;;;;;;;5052020;28;1887;-49
2022/11/15 05:14:15;;;;;;;;;;;;;;;;;;5051179;28;1909;-51
2022/11/15 05:17:01;;;;;;;;;;;;;;;;;;5052087;28;1986;-50
2022/11/15 05:19:47;;;;;;;;;;;;;;;;;;5051614;28;2000;-50
2022/11/15 05:22:33;;;;;;;;;;;;;;;;;;5051892;28;1863;-50
2022/11/15 05:25:19;;;;;;;;;;;;;;;;;;5051928;28;2042;-49
2022/11/15 05:28:05;;;;;;;;;;;;;;;;;;5051490;28;2088;-49
2022/11/15 05:30:51;;;;;;;;;;;;;;;;;;5051650;28;2059;-48
2022/11/15 05:33:40;;;;;;;;;;;;;;;;;;5051843;28;1853;-48
2022/11/15 05:36:35;;;;;;;;;;;;;;;;;;5051750;28;1883;-48
2022/11/15 05:39:21;;;;;;;;;;;;;;;;;;5051704;28;1965;-51
2022/11/15 05:42:11;;;;;;;;;;;;;;;;;;5051611;28;1873;-51
2022/11/15 05:44:58;;;;;;;;;;;;;;;;;;5051225;28;2021;-51
2022/11/15 05:47:44;;;;;;;;;;;;;;;;;;5051444;28;2226;-49
2022/11/15 05:50:30;;;;;;;;;;;;;;;;;;5051583;28;2114;-50
2022/11/15 05:53:19;;;;;;;;;;;;;;;;;;5050095;28;1996;-49
2022/11/15 05:56:06;;;;;;;;;;;;;;;;;;5051228;28;2127;-49
2022/11/15 05:58:56;;;;;;;;;;;;;;;;;;5051361;28;1860;-49
2022/11/15 06:01:44;;;;;;;;;;;;;;;;;;5051423;28;2040;-50
2022/11/15 06:04:29;;;;;;;;;;;;;;;;;;5051226;28;1821;-52
2022/11/15 06:07:15;;;;;;;;;;;;;;;;;;5050820;28;2102;-46
2022/11/15 06:10:01;;;;;;;;;;;;;;;;;;5050896;28;2169;-47
2022/11/15 06:12:46;;;;;;;;;;;;;;;;;;5051186;28;2197;-53
2022/11/15 06:15:33;;;;;;;;;;;;;;;;;;5051095;28;1981;-52
2022/11/15 06:18:19;;;;;;;;;;;;;;;;;;5051064;28;1841;-51
2022/11/15 06:21:05;;;;;;;;;;;;;;;;;;5050296;28;1821;-51
2022/11/15 06:23:51;;;;;;;;;;;;;;;;;;5050384;28;2017;-49
2022/11/15 06:26:36;;;;;;;;;;;;;;;;;;5050795;28;1978;-52
2022/11/15 06:29:22;;;;;;;;;;;;;;;;;;5050423;28;2116;-47
2022/11/15 06:32:07;;;;;;;;;;;;;;;;;;5050514;28;1988;-49
2022/11/15 06:34:53;;;;;;;;;;;;;;;;;;5050646;28;1968;-50
2022/11/15 06:37:38;;;;;;;;;;;;;;;;;;5051056;28;1816;-49
2022/11/15 06:40:24;;;;;;;;;;;;;;;;;;5050735;28;1906;-49
2022/11/15 06:43:09;;;;;;;;;;;;;;;;;;5049682;28;2152;-49
2022/11/15 06:45:55;;;;;;;;;;;;;;;;;;5031125;28;2062;-53
2022/11/15 06:48:40;;;;;;;;;;;;;;;;;;5031173;28;2070;-51
2022/11/15 06:51:26;;;;;;;;;;;;;;;;;;5030804;28;1864;-49
2022/11/15 06:54:12;;;;;;;;;;;;;;;;;;5031038;28;2005;-51
2022/11/15 06:56:57;;;;;;;;;;;;;;;;;;5030927;28;1968;-53
2022/11/15 06:59:44;;;;;;;;;;;;;;;;;;5030820;28;1892;-52
2022/11/15 07:02:29;;;;;;;;;;;;;;;;;;5030766;28;1888;-49
2022/11/15 07:05:15;;;;;;;;;;;;;;;;;;5031108;28;1963;-55
2022/11/15 07:08:01;;;;;;;;;;;;;;;;;;5030308;28;1951;-54
2022/11/15 07:10:47;;;;;;;;;;;;;;;;;;5030672;28;2158;-50
2022/11/15 07:13:33;;;;;;;;;;;;;;;;;;5030830;28;1926;-51
2022/11/15 07:16:19;;;;;;;;;;;;;;;;;;5030501;28;2035;-50
2022/11/15 07:19:05;;;;;;;;;;;;;;;;;;5030625;28;1903;-55
2022/11/15 07:21:51;;;;;;;;;;;;;;;;;;5030594;28;2146;-51
2022/11/15 07:24:37;;;;;;;;;;;;;;;;;;5030620;28;1984;-50
2022/11/15 07:27:22;;;;;;;;;;;;;;;;;;5030485;28;1989;-54
2022/11/15 07:30:08;;;;;;;;;;;;;;;;;;5030541;28;2046;-54
2022/11/15 07:32:55;;;;;;;;;;;;;;;;;;5030616;28;1861;-54
2022/11/15 07:35:42;;;;;;;;;;;;;;;;;;5030621;28;2018;-50
2022/11/15 07:38:28;;;;;;;;;;;;;;;;;;5034018;28;2012;-52
2022/11/15 07:41:14;;;;;;;;;;;;;;;;;;5034162;28;2152;-54
2022/11/15 07:44:00;;;;;;;;;;;;;;;;;;5041656;28;2096;-49
2022/11/15 07:46:45;;;;;;;;;;;;;;;;;;5054173;28;1904;-52
2022/11/15 07:49:31;;;;;;;;;;;;;;;;;;5053727;28;2101;-54
2022/11/15 07:52:17;;;;;;;;;;;;;;;;;;5053647;28;1920;-51
2022/11/15 07:55:03;;;;;;;;;;;;;;;;;;5051525;28;2037;-51
2022/11/15 07:57:49;;;;;;;;;;;;;;;;;;5053536;28;1682;-51
2022/11/15 08:00:34;;;;;;;;;;;;;;;;;;5053381;28;1799;-46
2022/11/15 08:03:21;;;;;;;;;;;;;;;;;;5053704;28;2033;-47
2022/11/15 08:06:08;;;;;;;;;;;;;;;;;;5052264;28;2002;-47
2022/11/15 08:08:54;;;;;;;;;;;;;;;;;;5033633;28;2087;-49
2022/11/15 08:11:39;;;;;;;;;;;;;;;;;;5033342;28;1849;-54
2022/11/15 08:14:25;;;;;;;;;;;;;;;;;;5033374;28;1869;-50
2022/11/15 08:17:11;;;;;;;;;;;;;;;;;;5033469;28;2007;-53
2022/11/15 08:19:57;;;;;;;;;;;;;;;;;;5046690;28;2031;-53
2022/11/15 08:22:42;;;;;;;;;;;;;;;;;;5053351;28;2081;-52
2022/11/15 08:25:29;;;;;;;;;;;;;;;;;;5053153;28;1896;-56
2022/11/15 08:28:16;;;;;;;;;;;;;;;;;;5053049;28;2108;-51
2022/11/15 08:31:02;;;;;;;;;;;;;;;;;;5052897;28;2068;-48
2022/11/15 08:33:48;;;;;;;;;;;;;;;;;;5050657;28;2034;-53
2022/11/15 08:36:37;;;;;;;;;;;;;;;;;;5051903;28;2057;-54
2022/11/15 08:39:31;;;;;;;;;;;;;;;;;;5052880;28;2028;-55
2022/11/15 08:42:17;;;;;;;;;;;;;;;;;;5052904;28;2079;-53
2022/11/15 08:45:04;;;;;;;;;;;;;;;;;;5052437;28;2099;-54
2022/11/15 08:47:56;;;;;;;;;;;;;;;;;;5052180;28;2241;-54
2022/11/15 08:50:52;;;;;;;;;;;;;;;;;;5052591;28;2118;-55
2022/11/15 08:53:53;;;;;;;;;;;;;;;;;;5052376;28;1926;-55
2022/11/15 08:56:44;;;;;;;;;;;;;;;;;;5052503;28;1891;-54
2022/11/15 08:59:37;;;;;;;;;;;;;;;;;;5052147;28;1932;-52
2022/11/15 09:02:24;;;;;;;;;;;;;;;;;;5052351;28;1847;-52
2022/11/15 09:05:15;;;;;;;;;;;;;;;;;;5052580;28;2024;-52
2022/11/15 09:08:05;;;;;;;;;;;;;;;;;;5052141;28;2009;-53
2022/11/15 09:11:17;;;;;;;;;;;;;;;;;;5052505;28;1914;-53
2022/11/15 09:14:08;;;;;;;;;;;;;;;;;;5052179;28;1916;-52
2022/11/15 09:16:58;;;;;;;;;;;;;;;;;;5052045;28;2094;-57
2022/11/15 09:19:46;;;;;;;;;;;;;;;;;;5052064;28;1964;-54
2022/11/15 09:22:40;;;;;;;;;;;;;;;;;;5051965;28;1981;-53
2022/11/15 09:25:32;;;;;;;;;;;;;;;;;;5051760;28;1838;-56
2022/11/15 09:28:19;;;;;;;;;;;;;;;;;;5051788;28;1956;-55
2022/11/15 09:31:06;;;;;;;;;;;;;;;;;;5051686;28;1910;-52
2022/11/15 09:33:55;;;;;;;;;;;;;;;;;;5051495;28;1943;-50
2022/11/15 09:36:45;;;;;;;;;;;;;;;;;;5051594;28;2014;-52
2022/11/15 09:39:36;;;;;;;;;;;;;;;;;;5051765;28;1998;-55
2022/11/15 09:42:34;;;;;;;;;;;;;;;;;;5051562;28;1953;-53
2022/11/15 09:45:44;;;;;;;;;;;;;;;;;;5051712;28;1938;-55
2022/11/15 09:49:00;;;;;;;;;;;;;;;;;;5051355;28;1910;-55
2022/11/15 09:51:56;;;;;;;;;;;;;;;;;;5051269;28;2221;-55
2022/11/15 09:54:46;;;;;;;;;;;;;;;;;;5051617;28;1945;-55
2022/11/15 09:57:24;;;;;;;;;;;;;;;;;;5051347;28;1965;-53
2022/11/15 10:00:03;;;;;;;;;;;;;;;;;;5050230;28;2100;-54
2022/11/15 10:03:08;;;;;;;;;;;;;;;;;;5051222;28;2011;-53
2022/11/15 10:05:48;;;;;;;;;;;;;;;;;;5051058;28;2078;-55
2022/11/15 10:08:31;;;;;;;;;;;;;;;;;;5051390;28;2073;-55
2022/11/15 10:11:26;;;;;;;;;;;;;;;;;;5051066;28;1883;-53
2022/11/15 10:14:12;;;;;;;;;;;;;;;;;;5050996;28;1907;-53
2022/11/15 10:16:52;;;;;;;;;;;;;;;;;;5051099;28;2160;-55
2022/11/15 10:19:21;;;;;;;;;;;;;;;;;;5049658;28;1929;-54
2022/11/15 10:22:10;;;;;;;;;;;;;;;;;;5050843;28;1822;-51
2022/11/15 10:24:41;;;;;;;;;;;;;;;;;;5051084;28;1838;-52
2022/11/15 10:27:13;;;;;;;;;;;;;;;;;;5050955;28;1914;-51
2022/11/15 10:29:50;;;;;;;;;;;;;;;;;;5051101;28;1951;-55
2022/11/15 10:32:19;;;;;;;;;;;;;;;;;;5050594;28;1979;-53
2022/11/15 10:34:50;;;;;;;;;;;;;;;;;;5050782;28;2040;-53
2022/11/15 10:37:28;;;;;;;;;;;;;;;;;;5050941;28;2070;-50
2022/11/15 10:40:07;;;;;;;;;;;;;;;;;;5050773;28;1879;-51
2022/11/15 10:42:35;;;;;;;;;;;;;;;;;;5050765;28;2105;-52
2022/11/15 10:45:22;;;;;;;;;;;;;;;;;;5034264;28;2018;-55
2022/11/15 10:47:50;;;;;;;;;;;;;;;;;;5030911;28;1930;-51
2022/11/15 10:50:29;;;;;;;;;;;;;;;;;;5030824;28;2269;-52
2022/11/15 10:52:58;;;;;;;;;;;;;;;;;;5030895;28;1889;-49
2022/11/15 10:55:30;;;;;;;;;;;;;;;;;;5030654;28;1786;-56
2022/11/15 10:58:02;;;;;;;;;;;;;;;;;;5029562;28;2173;-50
2022/11/15 11:00:32;;;;;;;;;;;;;;;;;;5030586;28;2029;-52
2022/11/15 11:03:02;;;;;;;;;;;;;;;;;;5030942;28;1936;-54
2022/11/15 11:05:40;;;;;;;;;;;;;;;;;;5036966;28;2050;-53
2022/11/15 11:08:11;;;;;;;;;;;;;;;;;;5050679;28;2065;-52
2022/11/15 11:10:39;;;;;;;;;;;;;;;;;;5050606;28;1965;-56
2022/11/15 11:13:28;;;;;;;;;;;;;;;;;;5053441;28;1844;-56
2022/11/15 11:16:07;;;;;;;;;;;;;;;;;;5054390;28;2002;-53
2022/11/15 11:18:42;;;;;;;;;;;;;;;;;;5054225;28;2029;-52
2022/11/15 11:21:11;;;;;;;;;;;;;;;;;;5054431;28;2091;-53
2022/11/15 11:23:38;;;;;;;;;;;;;;;;;;5054192;28;2102;-56
2022/11/15 11:26:14;;;;;;;;;;;;;;;;;;5054186;28;1807;-56
2022/11/15 11:28:53;;;;;;;;;;;;;;;;;;5053645;28;1914;-50
2022/11/15 11:31:41;;;;;;;;;;;;;;;;;;5053999;28;2051;-51
2022/11/15 11:34:27;;;;;;;;;;;;;;;;;;5053943;28;1836;-51
2022/11/15 11:37:05;;;;;;;;;;;;;;;;;;5053693;28;1861;-51
2022/11/15 11:39:32;;;;;;;;;;;;;;;;;;5053854;28;2017;-51
2022/11/15 11:42:12;;;;;;;;;;;;;;;;;;5053749;28;1877;-54
2022/11/15 11:44:55;;;;;;;;;;;;;;;;;;5040354;28;2015;-50
2022/11/15 11:47:30;;;;;;;;;;;;;;;;;;5033735;28;1819;-54
2022/11/15 11:50:06;;;;;;;;;;;;;;;;;;5032493;28;1910;-53
2022/11/15 11:52:36;;;;;;;;;;;;;;;;;;5033775;28;2034;-51
2022/11/15 11:55:14;;;;;;;;;;;;;;;;;;5033624;28;2252;-53
2022/11/15 11:57:46;;;;;;;;;;;;;;;;;;5033443;28;2054;-52
2022/11/15 12:00:21;;;;;;;;;;;;;;;;;;5033577;28;2030;-55
2022/11/15 12:02:54;;;;;;;;;;;;;;;;;;5033375;28;1837;-52
2022/11/15 12:05:27;;;;;;;;;;;;;;;;;;5033489;28;1981;-52
2022/11/15 12:07:56;;;;;;;;;;;;;;;;;;5033288;28;2049;-52
2022/11/15 12:10:30;;;;;;;;;;;;;;;;;;5032632;28;1977;-50
2022/11/15 12:13:04;;;;;;;;;;;;;;;;;;5032929;28;1947;-51
2022/11/15 12:15:36;;;;;;;;;;;;;;;;;;5033267;28;1856;-52
2022/11/15 12:18:08;;;;;;;;;;;;;;;;;;5031660;28;1938;-51
2022/11/15 12:20:39;;;;;;;;;;;;;;;;;;5043786;28;1994;-51
2022/11/15 12:23:13;;;;;;;;;;;;;;;;;;5044806;28;1886;-53
2022/11/15 12:25:45;;;;;;;;;;;;;;;;;;5045168;28;1984;-53
2022/11/15 12:28:19;;;;;;;;;;;;;;;;;;5032850;28;1849;-55
2022/11/15 12:31:01;;;;;;;;;;;;;;;;;;5032737;28;2043;-50
2022/11/15 12:33:29;;;;;;;;;;;;;;;;;;5032724;28;1908;-48
2022/11/15 12:35:58;;;;;;;;;;;;;;;;;;5032857;28;1966;-53
2022/11/15 12:38:45;;;;;;;;;;;;;;;;;;5032893;28;1944;-52
2022/11/15 12:41:14;;;;;;;;;;;;;;;;;;5032853;28;2259;-50
2022/11/15 12:43:44;;;;;;;;;;;;;;;;;;5038083;28;2050;-53
2022/11/15 12:46:13;;;;;;;;;;;;;;;;;;5052778;28;1984;-53
2022/11/15 12:48:40;;;;;;;;;;;;;;;;;;5052520;28;2035;-54
2022/11/15 12:51:07;;;;;;;;;;;;;;;;;;5052471;28;2042;-51
2022/11/15 12:53:34;;;;;;;;;;;;;;;;;;5052576;28;1941;-53
2022/11/15 12:56:18;;;;;;;;;;;;;;;;;;5052270;28;2066;-54
2022/11/15 12:59:08;;;;;;;;;;;;;;;;;;5045117;28;1982;-52
2022/11/15 13:01:43;;;;;;;;;;;;;;;;;;5052320;28;1986;-52
2022/11/15 13:04:19;;;;;;;;;;;;;;;;;;5052114;28;1971;-51
2022/11/15 13:06:56;;;;;;;;;;;;;;;;;;5043371;28;1989;-49
2022/11/15 13:09:40;;;;;;;;;;;;;;;;;;5051773;28;2036;-46
2022/11/15 13:12:17;;;;;;;;;;;;;;;;;;5052127;28;1963;-53
2022/11/15 13:14:49;;;;;;;;;;;;;;;;;;5052193;28;1858;-54
2022/11/15 13:17:26;;;;;;;;;;;;;;;;;;5052166;28;2216;-53
2022/11/15 13:19:57;;;;;;;;;;;;;;;;;;5051851;28;1864;-53
2022/11/15 13:25:18;;;;;;;;;;;;;;;;;;5052036;28;1907;-52
2022/11/15 13:27:48;;;;;;;;;;;;;;;;;;5051990;28;2008;-52
2022/11/15 13:30:23;;;;;;;;;;;;;;;;;;5051932;28;1912;-49
2022/11/15 13:32:51;;;;;;;;;;;;;;;;;;5051514;28;1984;-49
2022/11/15 13:35:25;;;;;;;;;;;;;;;;;;5050725;28;1909;-51
2022/11/15 13:37:53;;;;;;;;;;;;;;;;;;5051334;28;1943;-53
2022/11/15 13:40:27;;;;;;;;;;;;;;;;;;5051734;28;2089;-48
2022/11/15 13:42:54;;;;;;;;;;;;;;;;;;5051688;28;1947;-54
2022/11/15 13:45:22;;;;;;;;;;;;;;;;;;5051535;28;2023;-52
2022/11/15 13:47:56;;;;;;;;;;;;;;;;;;5051374;28;2076;-50
2022/11/15 13:50:26;;;;;;;;;;;;;;;;;;5050997;28;2179;-52
2022/11/15 13:52:57;;;;;;;;;;;;;;;;;;5049838;28;2068;-51
2022/11/15 13:55:25;;;;;;;;;;;;;;;;;;5051262;28;2094;-50
2022/11/15 13:58:00;;;;;;;;;;;;;;;;;;5051006;28;1780;-53
2022/11/15 14:00:34;;;;;;;;;;;;;;;;;;5050953;28;2136;-55
2022/11/15 14:03:14;;;;;;;;;;;;;;;;;;5051261;28;2144;-49
2022/11/15 14:05:42;;;;;;;;;;;;;;;;;;5051136;28;1962;-55
2022/11/15 14:08:22;;;;;;;;;;;;;;;;;;5051124;28;1883;-56
2022/11/15 14:11:06;;;;;;;;;;;;;;;;;;5051004;28;1898;-55
2022/11/15 14:13:33;;;;;;;;;;;;;;;;;;5051154;28;2018;-56
2022/11/15 14:16:17;;;;;;;;;;;;;;;;;;5051256;28;1992;-54
2022/11/15 14:18:49;;;;;;;;;;;;;;;;;;5050986;28;2104;-54
2022/11/15 14:21:18;;;;;;;;;;;;;;;;;;5051150;28;1876;-51
2022/11/15 14:23:48;;;;;;;;;;;;;;;;;;5050944;28;1978;-52
2022/11/15 14:26:29;;;;;;;;;;;;;;;;;;5051172;28;2012;-53
2022/11/15 14:28:57;;;;;;;;;;;;;;;;;;5050938;28;1829;-48
2022/11/15 14:31:24;;;;;;;;;;;;;;;;;;5051205;28;1915;-51
2022/11/15 14:33:51;;;;;;;;;;;;;;;;;;5050783;28;1672;-51
2022/11/15 14:36:19;;;;;;;;;;;;;;;;;;5050852;28;2190;-49
2022/11/15 14:38:47;;;;;;;;;;;;;;;;;;5051227;28;2102;-51
2022/11/15 14:41:19;;;;;;;;;;;;;;;;;;5051130;28;2354;-50
2022/11/15 14:43:47;;;;;;;;;;;;;;;;;;5044959;28;1945;-51
2022/11/15 14:46:15;;;;;;;;;;;;;;;;;;5033130;28;1824;-51
2022/11/15 14:48:42;;;;;;;;;;;;;;;;;;5034644;28;1990;-50
2022/11/15 14:51:13;;;;;;;;;;;;;;;;;;5034892;28;1979;-52
2022/11/15 14:53:42;;;;;;;;;;;;;;;;;;5034633;28;1882;-50
2022/11/15 14:56:10;;;;;;;;;;;;;;;;;;5034703;28;1920;-50
2022/11/15 14:58:39;;;;;;;;;;;;;;;;;;5033877;28;1796;-47
2022/11/15 15:01:15;;;;;;;;;;;;;;;;;;5034172;28;1949;-48
2022/11/15 15:03:58;;;;;;;;;;;;;;;;;;5034197;28;1874;-46
2022/11/15 15:06:34;;;;;;;;;;;;;;;;;;5034415;28;2233;-46
2022/11/15 15:09:05;;;;;;;;;;;;;;;;;;5034422;28;1923;-48
2022/11/15 15:11:33;;;;;;;;;;;;;;;;;;5034130;28;1984;-49
2022/11/15 15:14:01;;;;;;;;;;;;;;;;;;5034218;28;1989;-47
2022/11/15 15:16:30;;;;;;;;;;;;;;;;;;5034463;28;2022;-45
2022/11/15 15:18:57;;;;;;;;;;;;;;;;;;5034310;28;2041;-46
2022/11/15 15:21:28;;;;;;;;;;;;;;;;;;5034325;28;1907;-52
2022/11/15 15:24:02;;;;;;;;;;;;;;;;;;5048348;28;2088;-53
2022/11/15 15:26:33;;;;;;;;;;;;;;;;;;5054259;28;2212;-49
2022/11/15 15:29:00;;;;;;;;;;;;;;;;;;5054100;28;2112;-50
2022/11/15 15:31:27;;;;;;;;;;;;;;;;;;5053884;28;1954;-50
2022/11/15 15:33:54;;;;;;;;;;;;;;;;;;5053485;28;1989;-53
2022/11/15 15:36:21;;;;;;;;;;;;;;;;;;5054028;28;1922;-53
2022/11/15 15:38:49;;;;;;;;;;;;;;;;;;5053850;28;1654;-48
2022/11/15 15:41:16;;;;;;;;;;;;;;;;;;5053892;28;2116;-51
2022/11/15 15:43:44;;;;;;;;;;;;;;;;;;5047744;28;2138;-49
2022/11/15 15:46:11;;;;;;;;;;;;;;;;;;5033812;28;1896;-52
2022/11/15 15:48:39;;;;;;;;;;;;;;;;;;5033589;28;2032;-53
2022/11/15 15:51:06;;;;;;;;;;;;;;;;;;5033670;28;2158;-49
2022/11/15 15:53:41;;;;;;;;;;;;;;;;;;5033653;28;1608;-52
2022/11/15 15:56:09;;;;;;;;;;;;;;;;;;5033790;28;2197;-53
2022/11/15 15:58:36;;;;;;;;;;;;;;;;;;5032785;28;1930;-51
2022/11/15 16:01:03;;;;;;;;;;;;;;;;;;5033329;28;1884;-50
2022/11/15 16:03:31;;;;;;;;;;;;;;;;;;5032666;28;1830;-50
2022/11/15 16:05:58;;;;;;;;;;;;;;;;;;5033176;28;2038;-52
2022/11/15 16:08:29;;;;;;;;;;;;;;;;;;5033311;28;2087;-52
2022/11/15 16:11:09;;;;;;;;;;;;;;;;;;5033297;28;1977;-51
2022/11/15 16:13:36;;;;;;;;;;;;;;;;;;5033306;28;2220;-52
2022/11/15 16:16:07;;;;;;;;;;;;;;;;;;5033231;28;2040;-53
2022/11/15 16:18:35;;;;;;;;;;;;;;;;;;5033239;28;1660;-52
2022/11/15 16:21:02;;;;;;;;;;;;;;;;;;5033122;28;1908;-53
2022/11/15 16:23:29;;;;;;;;;;;;;;;;;;5033196;28;2052;-54
2022/11/15 16:25:56;;;;;;;;;;;;;;;;;;5033184;28;2232;-53
2022/11/15 16:28:28;;;;;;;;;;;;;;;;;;5033142;28;1948;-54
2022/11/15 16:31:03;;;;;;;;;;;;;;;;;;5032766;28;1984;-53
2022/11/15 16:33:30;;;;;;;;;;;;;;;;;;5033001;28;2045;-52
2022/11/15 16:35:58;;;;;;;;;;;;;;;;;;5032736;28;1876;-53
2022/11/15 16:38:26;;;;;;;;;;;;;;;;;;5032948;28;2039;-52
2022/11/15 16:40:53;;;;;;;;;;;;;;;;;;5032890;28;2064;-54
2022/11/15 16:43:20;;;;;;;;;;;;;;;;;;5034999;28;2025;-54
2022/11/15 16:45:48;;;;;;;;;;;;;;;;;;5032889;28;2315;-49
2022/11/15 16:48:26;;;;;;;;;;;;;;;;;;5032894;28;2130;-54
2022/11/15 16:50:55;;;;;;;;;;;;;;;;;;5032164;28;1971;-51
2022/11/15 16:53:23;;;;;;;;;;;;;;;;;;5032831;28;1749;-52
2022/11/15 16:55:51;;;;;;;;;;;;;;;;;;5032494;28;2001;-49
2022/11/15 16:58:18;;;;;;;;;;;;;;;;;;5032465;28;1891;-50
2022/11/15 17:00:49;;;;;;;;;;;;;;;;;;5032427;28;1941;-51
2022/11/15 17:03:16;;;;;;;;;;;;;;;;;;5032525;28;2021;-50
2022/11/15 17:05:43;;;;;;;;;;;;;;;;;;5032298;28;1714;-52
2022/11/15 17:08:10;;;;;;;;;;;;;;;;;;5031945;28;2008;-53
2022/11/15 17:10:39;;;;;;;;;;;;;;;;;;5037271;28;1928;-52
2022/11/15 17:13:08;;;;;;;;;;;;;;;;;;5052206;28;2053;-53
2022/11/15 17:15:35;;;;;;;;;;;;;;;;;;5051933;28;1888;-53
2022/11/15 17:18:02;;;;;;;;;;;;;;;;;;5051885;28;1829;-53
2022/11/15 17:20:29;;;;;;;;;;;;;;;;;;5052163;28;1838;-52
2022/11/15 17:22:56;;;;;;;;;;;;;;;;;;5051960;28;1961;-53
2022/11/15 17:25:24;;;;;;;;;;;;;;;;;;5052076;28;2117;-50
2022/11/15 17:27:52;;;;;;;;;;;;;;;;;;5051834;28;2026;-53
2022/11/15 17:30:19;;;;;;;;;;;;;;;;;;5052043;28;1977;-51
2022/11/15 17:32:46;;;;;;;;;;;;;;;;;;5051908;28;2005;-51
2022/11/15 17:35:13;;;;;;;;;;;;;;;;;;5051725;28;2178;-51
2022/11/15 17:37:42;;;;;;;;;;;;;;;;;;5051854;28;1767;-50
2022/11/15 17:40:09;;;;;;;;;;;;;;;;;;5051893;28;1966;-52
2022/11/15 17:42:39;;;;;;;;;;;;;;;;;;5051644;28;2108;-50
2022/11/15 17:45:06;;;;;;;;;;;;;;;;;;5052051;28;2090;-54
2022/11/15 17:47:36;;;;;;;;;;;;;;;;;;5051608;28;1955;-53
2022/11/15 17:50:04;;;;;;;;;;;;;;;;;;5051455;28;2010;-52
2022/11/15 17:52:31;;;;;;;;;;;;;;;;;;5051685;28;1637;-53
2022/11/15 17:54:59;;;;;;;;;;;;;;;;;;5051254;28;1891;-53
2022/11/15 17:57:26;;;;;;;;;;;;;;;;;;5051688;28;1940;-50
2022/11/15 17:59:53;;;;;;;;;;;;;;;;;;5051197;28;1840;-51
2022/11/15 18:02:21;;;;;;;;;;;;;;;;;;5051335;28;1964;-48
2022/11/15 18:04:48;;;;;;;;;;;;;;;;;;5051535;28;1895;-51
2022/11/15 18:07:16;;;;;;;;;;;;;;;;;;5051588;28;2027;-51
2022/11/15 18:09:43;;;;;;;;;;;;;;;;;;5051236;28;2006;-53
2022/11/15 18:12:11;;;;;;;;;;;;;;;;;;5051252;28;1989;-51
2022/11/15 18:14:38;;;;;;;;;;;;;;;;;;5051106;28;2001;-52
2022/11/15 18:17:05;;;;;;;;;;;;;;;;;;5051217;28;2090;-51
2022/11/15 18:19:33;;;;;;;;;;;;;;;;;;5050901;28;1997;-52
2022/11/15 18:22:03;;;;;;;;;;;;;;;;;;5050720;28;2011;-51
2022/11/15 18:24:32;;;;;;;;;;;;;;;;;;5051237;28;2205;-53
2022/11/15 18:27:00;;;;;;;;;;;;;;;;;;5051110;28;2092;-50
2022/11/15 18:29:28;;;;;;;;;;;;;;;;;;5050992;28;1732;-52
2022/11/15 18:31:55;;;;;;;;;;;;;;;;;;5050849;28;1916;-52
2022/11/15 18:34:24;;;;;;;;;;;;;;;;;;5051377;28;1975;-52
2022/11/15 18:36:51;;;;;;;;;;;;;;;;;;5051067;28;2002;-51
2022/11/15 18:39:19;;;;;;;;;;;;;;;;;;5051256;28;1839;-51
2022/11/15 18:41:47;;;;;;;;;;;;;;;;;;5051205;28;2073;-53
2022/11/15 18:44:15;;;;;;;;;;;;;;;;;;5050639;28;1927;-51
2022/11/15 18:46:43;;;;;;;;;;;;;;;;;;5049735;28;1804;-53